createdAt,value
2018-07-15T00:01:32.086Z,21.17
2018-07-15T00:04:02.652Z,21.15
2018-07-15T00:06:33.253Z,21.11
2018-07-15T00:09:03.867Z,21.03
2018-07-15T00:11:34.298Z,20.91
2018-07-15T00:14:05.706Z,20.71
2018-07-15T00:16:36.132Z,20.63
2018-07-15T00:19:06.289Z,20.65
2018-07-15T00:21:36.829Z,20.65
2018-07-15T00:24:07.702Z,20.64
2018-07-15T00:26:38.242Z,20.63
2018-07-15T00:29:09.808Z,20.60
2018-07-15T00:31:40.997Z,20.60
2018-07-15T00:34:12.006Z,20.58
2018-07-15T00:36:41.978Z,20.59
2018-07-15T00:39:13.320Z,20.60
2018-07-15T00:41:43.827Z,20.56
2018-07-15T00:44:14.241Z,20.52
2018-07-15T00:46:44.776Z,20.46
2018-07-15T00:49:15.563Z,20.47
2018-07-15T00:51:47.161Z,20.48
2018-07-15T00:54:17.923Z,20.37
2018-07-15T00:56:48.724Z,20.34
2018-07-15T00:59:19.327Z,20.31
2018-07-15T01:01:49.710Z,20.33
2018-07-15T01:04:20.443Z,20.35
2018-07-15T01:06:50.592Z,20.40
2018-07-15T01:09:21.578Z,20.52
2018-07-15T01:11:53.469Z,20.55
2018-07-15T01:14:23.928Z,20.50
2018-07-15T01:16:54.530Z,20.44
2018-07-15T01:19:25.311Z,20.38
2018-07-15T01:21:55.846Z,20.37
2018-07-15T01:24:26.369Z,20.35
2018-07-15T01:26:56.253Z,20.30
2018-07-15T01:29:27.016Z,20.26
2018-07-15T01:31:58.403Z,20.20
2018-07-15T01:34:28.735Z,20.14
2018-07-15T01:36:59.321Z,20.07
2018-07-15T01:39:29.823Z,20.00
2018-07-15T01:42:00.363Z,20.03
2018-07-15T01:44:31.094Z,20.07
2018-07-15T01:47:01.564Z,20.12
2018-07-15T01:49:32.609Z,20.15
2018-07-15T01:52:03.633Z,20.14
2018-07-15T01:54:34.196Z,20.13
2018-07-15T01:57:04.665Z,20.10
2018-07-15T01:59:35.186Z,20.08
2018-07-15T02:02:05.788Z,20.01
2018-07-15T02:04:36.158Z,19.91
2018-07-15T02:07:06.933Z,19.82
2018-07-15T02:09:37.993Z,19.70
2018-07-15T02:12:09.090Z,19.62
2018-07-15T02:14:39.637Z,19.48
2018-07-15T02:17:10.183Z,19.40
2018-07-15T02:19:40.693Z,19.34
2018-07-15T02:22:11.171Z,19.35
2018-07-15T02:24:41.770Z,19.40
2018-07-15T02:27:12.777Z,19.42
2018-07-15T02:29:43.969Z,19.46
2018-07-15T02:32:14.550Z,19.49
2018-07-15T02:34:45.126Z,19.50
2018-07-15T02:37:15.842Z,19.56
2018-07-15T02:39:46.304Z,19.55
2018-07-15T02:42:16.672Z,19.47
2018-07-15T02:44:46.617Z,19.43
2018-07-15T02:47:17.081Z,19.35
2018-07-15T02:49:48.378Z,19.32
2018-07-15T02:52:18.990Z,19.30
2018-07-15T02:54:49.532Z,19.33
2018-07-15T02:57:19.980Z,19.43
2018-07-15T02:59:50.502Z,19.48
2018-07-15T03:02:20.852Z,19.51
2018-07-15T03:04:50.885Z,19.53
2018-07-15T03:07:21.413Z,19.57
2018-07-15T03:09:53.652Z,19.64
2018-07-15T03:12:24.152Z,19.72
2018-07-15T03:14:54.631Z,19.73
2018-07-15T03:17:25.108Z,19.53
2018-07-15T03:19:55.590Z,19.46
2018-07-15T03:22:26.079Z,19.46
2018-07-15T03:24:56.525Z,19.43
2018-07-15T03:27:26.970Z,19.39
2018-07-15T03:29:58.274Z,19.32
2018-07-15T03:32:28.784Z,19.26
2018-07-15T03:34:59.387Z,19.19
2018-07-15T03:37:30.106Z,19.16
2018-07-15T03:40:00.721Z,19.15
2018-07-15T03:42:31.127Z,19.13
2018-07-15T03:45:01.793Z,19.07
2018-07-15T03:47:32.675Z,19.00
2018-07-15T03:50:03.942Z,19.13
2018-07-15T03:52:34.512Z,19.17
2018-07-15T03:55:05.422Z,19.04
2018-07-15T03:57:36.174Z,18.88
2018-07-15T04:00:06.842Z,18.80
2018-07-15T04:02:37.350Z,18.82
2018-07-15T04:05:07.946Z,18.86
2018-07-15T04:07:39.258Z,18.91
2018-07-15T04:10:10.198Z,18.93
2018-07-15T04:12:40.735Z,18.95
2018-07-15T04:15:10.947Z,19.00
2018-07-15T04:17:41.323Z,19.05
2018-07-15T04:20:11.402Z,19.09
2018-07-15T04:22:41.956Z,19.16
2018-07-15T04:25:12.506Z,19.24
2018-07-15T04:27:44.246Z,19.36
2018-07-15T04:30:15.934Z,19.51
2018-07-15T04:32:46.546Z,19.59
2018-07-15T04:35:17.168Z,19.74
2018-07-15T04:37:47.800Z,19.86
2018-07-15T04:40:18.843Z,20.00
2018-07-15T04:42:49.753Z,20.12
2018-07-15T04:45:21.400Z,20.19
2018-07-15T04:47:53.084Z,20.10
2018-07-15T04:50:23.608Z,20.32
2018-07-15T04:52:54.110Z,20.49
2018-07-15T04:55:24.811Z,20.58
2018-07-15T04:57:55.188Z,20.53
2018-07-15T05:00:25.718Z,20.45
2018-07-15T05:02:56.451Z,20.46
2018-07-15T05:05:28.503Z,20.56
2018-07-15T05:07:58.664Z,20.66
2018-07-15T05:10:29.423Z,20.71
2018-07-15T05:12:59.843Z,20.75
2018-07-15T05:15:29.955Z,20.80
2018-07-15T05:18:00.603Z,20.81
2018-07-15T05:20:32.289Z,20.81
2018-07-15T05:23:05.567Z,20.86
2018-07-15T05:25:36.371Z,20.94
2018-07-15T05:28:07.163Z,20.96
2018-07-15T05:30:37.657Z,21.07
2018-07-15T05:33:12.248Z,21.20
2018-07-15T05:38:18.602Z,21.34
2018-07-15T05:40:51.567Z,21.54
2018-07-15T05:43:22.532Z,21.76
2018-07-15T05:45:57.469Z,21.93
2018-07-15T05:48:28.154Z,22.12
2018-07-15T05:50:58.747Z,22.28
2018-07-15T05:53:30.189Z,22.42
2018-07-15T05:56:00.984Z,22.59
2018-07-15T05:58:31.596Z,22.81
2018-07-15T06:01:07.611Z,22.96
2018-07-15T06:03:38.675Z,23.16
2018-07-15T06:06:09.191Z,23.30
2018-07-15T06:08:39.469Z,23.41
2018-07-15T06:11:15.094Z,23.50
2018-07-15T06:13:45.780Z,23.65
2018-07-15T06:16:17.025Z,24.42
2018-07-15T06:18:51.902Z,25.22
2018-07-15T06:21:28.281Z,26.09
2018-07-15T06:23:59.457Z,26.69
2018-07-15T06:26:30.188Z,27.27
2018-07-15T06:29:00.808Z,27.63
2018-07-15T06:31:31.465Z,28.13
2018-07-15T06:34:02.345Z,28.65
2018-07-15T06:36:33.399Z,29.18
2018-07-15T06:39:06.212Z,29.37
2018-07-15T06:41:37.437Z,29.55
2018-07-15T06:44:08.644Z,29.77
2018-07-15T06:46:39.770Z,29.82
2018-07-15T06:49:09.896Z,29.87
2018-07-15T06:51:40.611Z,29.98
2018-07-15T06:54:11.391Z,30.32
2018-07-15T06:56:42.437Z,30.81
2018-07-15T06:59:13.879Z,31.12
2018-07-15T07:01:49.502Z,31.16
2018-07-15T07:04:25.534Z,31.50
2018-07-15T07:06:56.488Z,31.97
2018-07-15T07:09:27.991Z,32.21
2018-07-15T07:12:00.544Z,32.36
2018-07-15T07:17:08.186Z,32.89
2018-07-15T07:19:39.474Z,33.43
2018-07-15T07:22:10.090Z,33.45
2018-07-15T07:24:40.736Z,32.92
2018-07-15T07:27:11.220Z,32.76
2018-07-15T07:29:42.961Z,32.82
2018-07-15T07:32:14.245Z,33.19
2018-07-15T07:34:45.169Z,33.37
2018-07-15T07:37:16.302Z,33.75
2018-07-15T07:39:49.017Z,34.33
2018-07-15T07:42:21.093Z,34.87
2018-07-15T07:44:57.438Z,34.92
2018-07-15T07:47:28.031Z,35.35
2018-07-15T07:49:58.721Z,35.62
2018-07-15T07:52:29.593Z,35.41
2018-07-15T07:55:00.551Z,35.97
2018-07-15T07:57:31.497Z,36.00
2018-07-15T08:00:02.293Z,36.21
2018-07-15T08:02:33.958Z,36.36
2018-07-15T08:05:05.440Z,36.19
2018-07-15T08:10:11.123Z,36.69
2018-07-15T08:12:44.716Z,37.08
2018-07-15T08:15:16.427Z,37.13
2018-07-15T08:17:48.716Z,37.37
2018-07-15T08:20:21.359Z,37.66
2018-07-15T08:22:57.172Z,37.58
2018-07-15T08:28:05.023Z,38.12
2018-07-15T08:30:52.440Z,38.25
2018-07-15T08:33:24.105Z,38.30
2018-07-15T08:35:54.806Z,38.67
2018-07-15T08:38:30.115Z,39.02
2018-07-15T08:41:09.726Z,39.38
2018-07-15T08:43:40.449Z,39.28
2018-07-15T08:46:10.704Z,39.25
2018-07-15T08:48:41.529Z,39.46
2018-07-15T08:51:12.285Z,40.02
2018-07-15T08:56:20.639Z,40.18
2018-07-15T08:58:51.640Z,39.56
2018-07-15T09:01:22.561Z,39.67
2018-07-15T09:03:53.139Z,39.85
2018-07-15T09:06:23.929Z,39.72
2018-07-15T09:09:01.614Z,39.72
2018-07-15T09:11:32.576Z,40.22
2018-07-15T09:14:03.569Z,39.85
2018-07-15T09:16:38.811Z,39.54
2018-07-15T09:19:09.968Z,39.80
2018-07-15T09:21:42.953Z,40.33
2018-07-15T09:24:15.276Z,40.14
2018-07-15T09:26:46.710Z,39.79
2018-07-15T09:29:17.887Z,40.09
2018-07-15T09:31:49.639Z,40.69
2018-07-15T09:34:24.628Z,41.02
2018-07-15T09:36:55.974Z,40.55
2018-07-15T09:39:29.985Z,40.36
2018-07-15T09:42:01.883Z,40.48
2018-07-15T09:44:32.911Z,40.59
2018-07-15T09:47:04.108Z,41.06
2018-07-15T09:49:36.775Z,40.94
2018-07-15T09:52:07.442Z,40.63
2018-07-15T09:54:38.427Z,41.13
2018-07-15T09:57:10.492Z,41.40
2018-07-15T09:59:42.149Z,41.28
2018-07-15T10:02:13.829Z,41.64
2018-07-15T10:04:44.750Z,41.79
2018-07-15T10:07:15.895Z,42.02
2018-07-15T10:09:47.518Z,41.72
2018-07-15T10:12:19.444Z,41.22
2018-07-15T10:14:51.017Z,40.23
2018-07-15T10:17:22.908Z,37.07
2018-07-15T10:19:59.260Z,36.27
2018-07-15T10:22:31.185Z,38.08
2018-07-15T10:25:02.388Z,38.80
2018-07-15T10:27:35.471Z,39.37
2018-07-15T10:30:09.686Z,39.91
2018-07-15T10:32:42.316Z,39.97
2018-07-15T10:35:13.756Z,39.63
2018-07-15T10:37:45.590Z,40.50
2018-07-15T10:40:19.325Z,41.00
2018-07-15T10:42:57.734Z,41.13
2018-07-15T10:45:29.228Z,40.96
2018-07-15T10:48:01.408Z,40.66
2018-07-15T10:50:34.270Z,41.00
2018-07-15T10:53:06.071Z,41.71
2018-07-15T10:55:37.727Z,41.93
2018-07-15T10:58:09.019Z,40.47
2018-07-15T11:00:39.679Z,40.22
2018-07-15T11:03:12.093Z,40.24
2018-07-15T11:05:43.211Z,39.65
2018-07-15T11:08:14.563Z,40.36
2018-07-15T11:10:45.952Z,40.98
2018-07-15T11:13:17.973Z,41.29
2018-07-15T11:15:49.711Z,41.96
2018-07-15T11:18:21.491Z,41.69
2018-07-15T11:20:52.331Z,41.58
2018-07-15T11:23:23.133Z,41.91
2018-07-15T11:25:54.085Z,42.50
2018-07-15T11:28:24.148Z,42.65
2018-07-15T11:30:55.627Z,42.58
2018-07-15T11:33:27.829Z,42.40
2018-07-15T11:35:59.624Z,43.09
2018-07-15T11:38:30.524Z,43.10
2018-07-15T11:41:01.319Z,42.89
2018-07-15T11:43:32.641Z,42.94
2018-07-15T11:46:03.416Z,42.53
2018-07-15T11:48:34.552Z,42.06
2018-07-15T11:51:06.150Z,41.41
2018-07-15T11:53:37.197Z,42.04
2018-07-15T11:56:09.060Z,41.88
2018-07-15T11:58:43.296Z,41.77
2018-07-15T12:01:17.110Z,41.90
2018-07-15T12:03:49.340Z,41.31
2018-07-15T12:06:20.966Z,41.74
2018-07-15T12:09:01.308Z,41.98
2018-07-15T12:14:15.409Z,40.77
2018-07-15T12:16:47.261Z,40.19
2018-07-15T12:19:19.049Z,40.82
2018-07-15T12:21:49.982Z,40.57
2018-07-15T12:24:24.178Z,40.98
2018-07-15T12:26:56.562Z,41.42
2018-07-15T12:29:30.185Z,41.48
2018-07-15T12:32:00.495Z,40.59
2018-07-15T12:34:31.187Z,39.73
2018-07-15T12:37:04.575Z,39.40
2018-07-15T12:39:35.797Z,37.52
2018-07-15T12:42:07.044Z,36.56
2018-07-15T12:44:37.977Z,38.08
2018-07-15T12:47:10.379Z,39.10
2018-07-15T12:49:41.884Z,39.59
2018-07-15T12:52:13.958Z,39.87
2018-07-15T12:54:45.032Z,40.02
2018-07-15T12:57:16.711Z,40.17
2018-07-15T12:59:47.862Z,40.56
2018-07-15T13:02:18.563Z,40.85
2018-07-15T13:04:50.288Z,41.35
2018-07-15T13:07:22.329Z,41.02
2018-07-15T13:09:52.568Z,41.16
2018-07-15T13:12:23.330Z,41.48
2018-07-15T13:14:54.019Z,41.46
2018-07-15T13:17:25.792Z,41.44
2018-07-15T13:19:56.533Z,41.25
2018-07-15T13:22:27.577Z,41.66
2018-07-15T13:24:58.991Z,41.85
2018-07-15T13:27:29.692Z,41.94
2018-07-15T13:30:00.268Z,41.90
2018-07-15T13:32:31.249Z,41.96
2018-07-15T13:35:03.144Z,41.64
2018-07-15T13:37:35.399Z,41.79
2018-07-15T13:40:06.364Z,41.50
2018-07-15T13:42:39.590Z,40.81
2018-07-15T13:45:10.425Z,38.75
2018-07-15T13:47:41.290Z,39.59
2018-07-15T13:50:12.153Z,39.00
2018-07-15T13:52:43.340Z,38.76
2018-07-15T13:55:14.199Z,39.30
2018-07-15T13:57:46.243Z,39.07
2018-07-15T14:00:18.258Z,39.77
2018-07-15T14:02:49.377Z,37.62
2018-07-15T14:05:20.156Z,35.60
2018-07-15T14:07:51.900Z,36.50
2018-07-15T14:10:24.151Z,37.67
2018-07-15T14:12:55.519Z,38.61
2018-07-15T14:15:27.374Z,39.32
2018-07-15T14:18:00.128Z,39.87
2018-07-15T14:20:30.686Z,39.84
2018-07-15T14:23:01.313Z,40.13
2018-07-15T14:25:32.714Z,40.38
2018-07-15T14:28:03.259Z,40.52
2018-07-15T14:30:33.844Z,40.25
2018-07-15T14:33:04.457Z,40.22
2018-07-15T14:35:35.996Z,40.07
2018-07-15T14:38:07.671Z,39.69
2018-07-15T14:40:38.604Z,40.14
2018-07-15T14:43:09.479Z,40.04
2018-07-15T14:45:47.760Z,39.88
2018-07-15T14:48:18.360Z,39.90
2018-07-15T14:50:50.140Z,39.89
2018-07-15T14:53:21.974Z,40.03
2018-07-15T14:55:52.459Z,39.93
2018-07-15T14:58:23.340Z,40.00
2018-07-15T15:00:54.888Z,39.93
2018-07-15T15:03:26.377Z,39.81
2018-07-15T15:05:57.858Z,39.51
2018-07-15T15:08:30.684Z,39.42
2018-07-15T15:11:02.258Z,39.06
2018-07-15T15:13:33.708Z,38.79
2018-07-15T15:16:06.955Z,38.53
2018-07-15T15:21:15.732Z,38.50
2018-07-15T15:23:48.293Z,38.37
2018-07-15T15:26:22.782Z,38.27
2018-07-15T15:28:54.375Z,37.99
2018-07-15T15:31:26.388Z,38.06
2018-07-15T15:33:58.299Z,37.65
2018-07-15T15:36:30.304Z,36.64
2018-07-15T15:39:02.510Z,36.84
2018-07-15T15:41:34.341Z,36.14
2018-07-15T15:44:06.004Z,35.64
2018-07-15T15:46:37.770Z,35.19
2018-07-15T15:49:09.713Z,35.37
2018-07-15T15:51:41.192Z,34.91
2018-07-15T15:54:13.495Z,35.14
2018-07-15T15:56:44.875Z,35.75
2018-07-15T15:59:16.144Z,36.36
2018-07-15T16:01:48.977Z,36.60
2018-07-15T16:04:25.301Z,36.56
2018-07-15T16:07:01.398Z,36.14
2018-07-15T16:09:36.830Z,36.29
2018-07-15T16:12:11.737Z,35.82
2018-07-15T16:14:43.372Z,35.76
2018-07-15T16:17:15.720Z,35.73
2018-07-15T16:19:47.927Z,35.58
2018-07-15T16:22:19.734Z,35.55
2018-07-15T16:24:51.455Z,35.41
2018-07-15T16:27:23.378Z,35.43
2018-07-15T16:29:56.179Z,35.37
2018-07-15T16:32:28.506Z,35.09
2018-07-15T16:35:00.036Z,34.77
2018-07-15T16:37:31.829Z,34.65
2018-07-15T16:40:03.473Z,34.60
2018-07-15T16:42:35.134Z,34.46
2018-07-15T16:45:07.092Z,34.39
2018-07-15T16:47:39.134Z,34.13
2018-07-15T16:50:11.045Z,34.21
2018-07-15T16:52:41.770Z,34.16
2018-07-15T16:55:14.302Z,34.11
2018-07-15T16:57:45.128Z,34.12
2018-07-15T17:00:16.107Z,34.07
2018-07-15T17:02:46.446Z,34.09
2018-07-15T17:05:16.919Z,34.07
2018-07-15T17:07:48.355Z,34.05
2018-07-15T17:10:19.440Z,33.99
2018-07-15T17:12:50.179Z,33.97
2018-07-15T17:15:20.818Z,33.89
2018-07-15T17:17:51.592Z,33.84
2018-07-15T17:20:21.713Z,33.86
2018-07-15T17:22:52.746Z,33.79
2018-07-15T17:25:23.750Z,33.77
2018-07-15T17:27:55.673Z,33.62
2018-07-15T17:30:27.487Z,33.58
2018-07-15T17:32:58.515Z,33.49
2018-07-15T17:35:29.736Z,33.43
2018-07-15T17:38:00.484Z,33.36
2018-07-15T17:40:31.061Z,33.19
2018-07-15T17:43:02.534Z,33.02
2018-07-15T17:45:34.375Z,32.91
2018-07-15T17:48:05.908Z,32.70
2018-07-15T17:50:38.912Z,32.52
2018-07-15T17:53:10.479Z,32.46
2018-07-15T17:55:41.305Z,32.36
2018-07-15T17:58:12.237Z,32.15
2018-07-15T18:00:42.674Z,31.79
2018-07-15T18:03:14.844Z,31.90
2018-07-15T18:05:45.867Z,31.87
2018-07-15T18:08:16.655Z,31.87
2018-07-15T18:10:48.011Z,31.83
2018-07-15T18:13:19.488Z,31.73
2018-07-15T18:15:50.565Z,31.46
2018-07-15T18:18:22.700Z,31.10
2018-07-15T18:20:55.851Z,30.83
2018-07-15T18:23:27.290Z,30.58
2018-07-15T18:25:58.317Z,30.51
2018-07-15T18:28:29.992Z,30.32
2018-07-15T18:31:01.600Z,30.18
2018-07-15T18:33:33.131Z,30.12
2018-07-15T18:36:06.037Z,30.07
2018-07-15T18:38:38.303Z,30.06
2018-07-15T18:41:10.114Z,30.00
2018-07-15T18:43:42.222Z,29.91
2018-07-15T18:46:13.761Z,29.83
2018-07-15T18:48:45.765Z,29.74
2018-07-15T18:51:18.087Z,29.62
2018-07-15T18:53:51.423Z,29.50
2018-07-15T18:56:23.232Z,29.36
2018-07-15T18:58:56.151Z,29.20
2018-07-15T19:01:28.991Z,29.12
2018-07-15T19:04:00.830Z,29.11
2018-07-15T19:06:34.199Z,29.02
2018-07-15T19:09:08.076Z,28.92
2018-07-15T19:11:39.813Z,28.77
2018-07-15T19:14:11.763Z,28.64
2018-07-15T19:16:43.580Z,28.53
2018-07-15T19:19:15.976Z,28.36
2018-07-15T19:21:48.756Z,28.46
2018-07-15T19:24:20.488Z,28.49
2018-07-15T19:26:52.617Z,28.47
2018-07-15T19:29:24.459Z,28.59
2018-07-15T19:31:56.257Z,28.56
2018-07-15T19:34:27.346Z,28.47
2018-07-15T19:37:00.511Z,28.48
2018-07-15T19:39:32.376Z,28.46
2018-07-15T19:42:04.136Z,28.36
2018-07-15T19:44:36.765Z,28.26
2018-07-15T19:47:08.804Z,28.30
2018-07-15T19:49:40.642Z,28.24
2018-07-15T19:52:13.125Z,28.17
2018-07-15T19:54:45.606Z,28.19
2018-07-15T19:57:17.749Z,28.23
2018-07-15T19:59:49.496Z,28.20
2018-07-15T20:02:21.275Z,28.13
2018-07-15T20:04:52.961Z,27.98
2018-07-15T20:07:26.172Z,27.87
2018-07-15T20:09:58.154Z,27.86
2018-07-15T20:12:29.987Z,27.70
2018-07-15T20:15:02.183Z,27.52
2018-07-15T20:17:33.152Z,27.40
2018-07-15T20:20:05.063Z,27.36
2018-07-15T20:22:37.462Z,27.29
2018-07-15T20:25:09.914Z,27.28
2018-07-15T20:27:42.512Z,27.39
2018-07-15T20:30:14.207Z,27.42
2018-07-15T20:32:47.875Z,27.41
2018-07-15T20:35:19.529Z,27.18
2018-07-15T20:37:52.692Z,27.14
2018-07-15T20:40:25.864Z,27.07
2018-07-15T20:42:57.653Z,26.82
2018-07-15T20:45:28.637Z,26.59
2018-07-15T20:48:00.230Z,26.18
2018-07-15T20:50:31.839Z,25.90
2018-07-15T20:53:04.325Z,25.62
2018-07-15T20:55:36.358Z,25.46
2018-07-15T20:58:07.244Z,25.19
2018-07-15T21:00:38.323Z,25.00
2018-07-15T21:03:09.328Z,24.86
2018-07-15T21:05:40.427Z,24.73
2018-07-15T21:08:12.908Z,24.64
2018-07-15T21:10:53.001Z,24.59
2018-07-15T21:13:23.717Z,24.54
2018-07-15T21:16:01.970Z,24.27
2018-07-15T21:18:33.082Z,23.95
2018-07-15T21:21:03.747Z,23.82
2018-07-15T21:23:35.864Z,23.74
2018-07-15T21:26:06.350Z,23.65
2018-07-15T21:28:37.443Z,23.54
2018-07-15T21:31:08.779Z,23.43
2018-07-15T21:33:40.527Z,23.41
2018-07-15T21:36:11.290Z,23.40
2018-07-15T21:38:42.498Z,23.38
2018-07-15T21:41:13.744Z,23.37
2018-07-15T21:43:45.094Z,23.32
2018-07-15T21:46:15.727Z,23.29
2018-07-15T21:48:46.399Z,23.34
2018-07-15T21:51:17.015Z,23.30
2018-07-15T21:53:47.551Z,23.23
2018-07-15T21:56:18.112Z,23.11
2018-07-15T21:58:48.612Z,23.00
2018-07-15T22:01:20.013Z,22.97
2018-07-15T22:03:51.009Z,22.77
2018-07-15T22:07:39.996Z,22.65
2018-07-15T22:10:17.965Z,22.49
2018-07-15T22:12:48.653Z,22.40
2018-07-15T22:15:19.931Z,22.46
2018-07-15T22:17:50.864Z,22.28
2018-07-15T22:20:21.406Z,22.18
2018-07-15T22:22:52.130Z,22.24
2018-07-15T22:25:23.069Z,22.21
2018-07-15T22:27:53.766Z,22.25
2018-07-15T22:30:24.332Z,22.35
2018-07-15T22:32:54.826Z,22.21
2018-07-15T22:35:27.701Z,22.18
2018-07-15T22:37:58.459Z,22.02
2018-07-15T22:40:29.097Z,22.05
2018-07-15T22:42:59.617Z,21.91
2018-07-15T22:45:30.441Z,21.84
2018-07-15T22:48:01.026Z,21.75
2018-07-15T22:50:31.682Z,21.68
2018-07-15T22:53:02.226Z,21.56
2018-07-15T22:55:33.630Z,21.53
2018-07-15T22:58:04.335Z,21.44
2018-07-15T23:00:34.886Z,21.38
2018-07-15T23:03:05.818Z,21.35
2018-07-15T23:05:54.956Z,21.46
2018-07-15T23:08:26.785Z,21.47
2018-07-15T23:10:57.312Z,21.50
2018-07-15T23:13:27.867Z,21.52
2018-07-15T23:15:58.353Z,21.55
2018-07-15T23:18:28.930Z,21.66
2018-07-15T23:20:59.415Z,21.57
2018-07-15T23:23:30.546Z,21.54
2018-07-15T23:26:01.518Z,21.54
2018-07-15T23:28:31.580Z,21.44
2018-07-15T23:31:02.246Z,21.23
2018-07-15T23:33:33.531Z,21.15
2018-07-15T23:36:03.901Z,21.09
2018-07-15T23:38:34.279Z,21.02
2018-07-15T23:41:04.803Z,20.97
2018-07-15T23:43:36.561Z,20.94
2018-07-15T23:46:07.346Z,20.91
2018-07-15T23:48:38.139Z,20.91
2018-07-15T23:51:08.844Z,20.90
2018-07-15T23:53:39.552Z,20.79
2018-07-15T23:56:10.069Z,20.61
2018-07-15T23:58:40.464Z,20.52
